Observation data for Knox City on 10/15/2019      Previous  Date  Next       Current Mesonet Observations  Soil Data  Daily Summary Page  Observations in Plain Language
KKN1 150500Z 18010KT 21/16 A299 RMK A01 T02070161  RH  079%=      5-min Rain = 0
KKN1 150505Z 18009KT 21/16 A299 RMK A01 T02060161  RH  079%=      5-min Rain = 0
KKN1 150510Z 18009KT 21/16 A299 RMK A01 T02060161  RH  079%=      5-min Rain = 0
KKN1 150515Z 18009KT 21/16 A299 RMK A01 T02060161  RH  079%=      5-min Rain = 0
KKN1 150520Z 18010KT 21/16 A299 RMK A01 T02050161  RH  079%=      5-min Rain = 0
KKN1 150525Z 18011KT 21/16 A299 RMK A01 T02050161  RH  079%=      5-min Rain = 0
KKN1 150530Z 18010KT 21/16 A299 RMK A01 T02050161  RH  080%=      5-min Rain = 0
KKN1 150535Z 18009KT 20/16 A299 RMK A01 T02040161  RH  080%=      5-min Rain = 0
KKN1 150540Z 18009KT 20/16 A299 RMK A01 T02030161  RH  080%=      5-min Rain = 0
KKN1 150545Z 18008KT 20/16 A299 RMK A01 T02020161  RH  081%=      5-min Rain = 0
KKN1 150550Z 19009KT 20/16 A299 RMK A01 T02020161  RH  081%=      5-min Rain = 0
KKN1 150555Z 19009KT 20/16 A299 RMK A01 T02020161  RH  081%=      5-min Rain = 0
KKN1 150600Z 19008KT 20/16 A2989 RMK A01 T02010161  RH  081%=      5-min Rain = 0
KKN1 150605Z 19008KT 20/16 A2989 RMK A01 T02000160  RH  082%=      5-min Rain = 0
KKN1 150610Z 19007KT 20/16 A2989 RMK A01 T02000160  RH  082%=      5-min Rain = 0
KKN1 150615Z 19006KT 20/16 A299 RMK A01 T02000160  RH  082%=      5-min Rain = 0
KKN1 150620Z 19006KT 20/16 A299 RMK A01 T01980160  RH  083%=      5-min Rain = 0
KKN1 150625Z 19005KT 20/16 A299 RMK A01 T01970160  RH  083%=      5-min Rain = 0
KKN1 150630Z 19006KT 20/16 A2989 RMK A01 T01970160  RH  083%=      5-min Rain = 0
KKN1 150635Z 19007KT 20/16 A2989 RMK A01 T01970160  RH  083%=      5-min Rain = 0
KKN1 150640Z 19007KT 20/16 A2989 RMK A01 T01960160  RH  083%=      5-min Rain = 0
KKN1 150645Z 20006KT 19/16 A2989 RMK A01 T01940159  RH  084%=      5-min Rain = 0
KKN1 150650Z 20006KT 19/16 A2989 RMK A01 T01930159  RH  085%=      5-min Rain = 0
KKN1 150655Z 21005KT 19/16 A2988 RMK A01 T01920159  RH  085%=      5-min Rain = 0
KKN1 150700Z 21005KT 19/16 A2989 RMK A01 T01910159  RH  086%=      5-min Rain = 0
KKN1 150705Z 21004KT 19/16 A2989 RMK A01 T01910160  RH  086%=      5-min Rain = 0
KKN1 150710Z 21004KT 19/16 A2989 RMK A01 T01910160  RH  086%=      5-min Rain = 0
KKN1 150715Z 21005KT 19/16 A2989 RMK A01 T01910160  RH  086%=      5-min Rain = 0
KKN1 150720Z 21005KT 19/16 A2989 RMK A01 T01910160  RH  086%=      5-min Rain = 0
KKN1 150725Z 21005KT 19/16 A2988 RMK A01 T01900159  RH  086%=      5-min Rain = 0
KKN1 150730Z 21006KT 19/16 A2988 RMK A01 T01890159  RH  086%=      5-min Rain = 0
KKN1 150735Z 21005KT 19/16 A2988 RMK A01 T01900159  RH  086%=      5-min Rain = 0
KKN1 150740Z 21005KT 19/16 A2988 RMK A01 T01900159  RH  086%=      5-min Rain = 0
KKN1 150745Z 22005KT 19/16 A2988 RMK A01 T01890159  RH  087%=      5-min Rain = 0
KKN1 150750Z 22006KT 19/16 A2989 RMK A01 T01910160  RH  086%=      5-min Rain = 0
KKN1 150755Z 22006KT 20/16 A2988 RMK A01 T01950161  RH  084%=      5-min Rain = 0
KKN1 150800Z 21006KT 20/16 A2988 RMK A01 T01950160  RH  084%=      5-min Rain = 0
KKN1 150805Z 21006KT 20/16 A2988 RMK A01 T01950160  RH  084%=      5-min Rain = 0
KKN1 150810Z 21006KT 19/16 A2988 RMK A01 T01930159  RH  085%=      5-min Rain = 0
KKN1 150815Z 21006KT 19/16 A2988 RMK A01 T01910159  RH  085%=      5-min Rain = 0
KKN1 150820Z 21006KT 19/16 A2988 RMK A01 T01900159  RH  086%=      5-min Rain = 0
KKN1 150825Z 21006KT 19/16 A2988 RMK A01 T01930160  RH  085%=      5-min Rain = 0
KKN1 150830Z 21007KT 20/16 A2988 RMK A01 T01960161  RH  084%=      5-min Rain = 0
KKN1 150835Z 22007KT 20/16 A2988 RMK A01 T01980161  RH  083%=      5-min Rain = 0
KKN1 150840Z 21007KT 20/16 A2988 RMK A01 T01980161  RH  083%=      5-min Rain = 0
KKN1 150845Z 21007KT 20/16 A2988 RMK A01 T01990161  RH  082%=      5-min Rain = 0
KKN1 150850Z 21007KT 20/16 A2987 RMK A01 T01990161  RH  082%=      5-min Rain = 0
KKN1 150855Z 21007KT 20/16 A2987 RMK A01 T01990161  RH  083%=      5-min Rain = 0
KKN1 150900Z 21007KT 20/16 A2987 RMK A01 T01980161  RH  083%=      5-min Rain = 0
KKN1 150905Z 21007KT 20/16 A2987 RMK A01 T01990161  RH  083%=      5-min Rain = 0
KKN1 150910Z 21006KT 20/16 A2987 RMK A01 T01990161  RH  083%=      5-min Rain = 0
KKN1 150915Z 20006KT 20/16 A2987 RMK A01 T01990161  RH  082%=      5-min Rain = 0
KKN1 150920Z 19006KT 20/16 A2987 RMK A01 T01980161  RH  083%=      5-min Rain = 0
KKN1 150925Z 19006KT 20/16 A2987 RMK A01 T01970160  RH  083%=      5-min Rain = 0
KKN1 150930Z 19005KT 20/16 A2987 RMK A01 T01970160  RH  083%=      5-min Rain = 0
KKN1 150935Z 19005KT 20/16 A2987 RMK A01 T01950159  RH  084%=      5-min Rain = 0
KKN1 150940Z 19005KT 19/16 A2987 RMK A01 T01930159  RH  084%=      5-min Rain = 0
KKN1 150945Z 19006KT 19/16 A2987 RMK A01 T01920158  RH  085%=      5-min Rain = 0
KKN1 150950Z 19006KT 19/16 A2987 RMK A01 T01910158  RH  085%=      5-min Rain = 0
KKN1 150955Z 19006KT 19/16 A2987 RMK A01 T01910158  RH  085%=      5-min Rain = 0
KKN1 151000Z 20005KT 19/16 A2987 RMK A01 T01910158  RH  085%=      5-min Rain = 0
KKN1 151005Z 20005KT 19/16 A2987 RMK A01 T01900158  RH  085%=      5-min Rain = 0
KKN1 151010Z 20006KT 19/16 A2987 RMK A01 T01890157  RH  086%=      5-min Rain = 0
KKN1 151015Z 20005KT 19/16 A2988 RMK A01 T01890157  RH  085%=      5-min Rain = 0
KKN1 151020Z 20003KT 19/16 A2988 RMK A01 T01890157  RH  086%=      5-min Rain = 0
KKN1 151025Z 32001KT 19/16 A2988 RMK A01 T01860155  RH  086%=      5-min Rain = 0
KKN1 151030Z 33001KT 18/16 A2988 RMK A01 T01840156  RH  087%=      5-min Rain = 0
KKN1 151035Z 00000KT 19/16 A2989 RMK A01 T01850156  RH  087%=      5-min Rain = 0
KKN1 151040Z 20001KT 19/16 A2989 RMK A01 T01860156  RH  087%=      5-min Rain = 0
KKN1 151045Z 19001KT 18/15 A2989 RMK A01 T01840153  RH  086%=      5-min Rain = 0
KKN1 151050Z 20002KT 18/16 A2989 RMK A01 T01830155  RH  087%=      5-min Rain = 0
KKN1 151055Z 20003KT 19/16 A2989 RMK A01 T01850155  RH  086%=      5-min Rain = 0
KKN1 151100Z 19005KT 18/15 A2988 RMK A01 T01840153  RH  086%=      5-min Rain = 0
KKN1 151105Z 19004KT 18/15 A2988 RMK A01 T01830152  RH  086%=      5-min Rain = 0
KKN1 151110Z 19003KT 18/15 A2988 RMK A01 T01820151  RH  086%=      5-min Rain = 0
KKN1 151115Z 19003KT 18/15 A2989 RMK A01 T01800151  RH  087%=      5-min Rain = 0
KKN1 151120Z 19003KT 18/15 A2989 RMK A01 T01790151  RH  087%=      5-min Rain = 0
KKN1 151125Z 17003KT 18/15 A2988 RMK A01 T01770149  RH  088%=      5-min Rain = 0
KKN1 151130Z 17003KT 18/15 A2989 RMK A01 T01750148  RH  088%=      5-min Rain = 0
KKN1 151135Z 17003KT 18/15 A2989 RMK A01 T01760149  RH  088%=      5-min Rain = 0
KKN1 151140Z 17005KT 18/15 A2989 RMK A01 T01760149  RH  088%=      5-min Rain = 0
KKN1 151145Z 17006KT 18/15 A2989 RMK A01 T01750149  RH  088%=      5-min Rain = 0
KKN1 151150Z 17007KT 18/15 A2989 RMK A01 T01770151  RH  089%=      5-min Rain = 0
KKN1 151155Z 17006KT 18/15 A2989 RMK A01 T01780152  RH  088%=      5-min Rain = 0
KKN1 151200Z 17006KT 18/15 A2989 RMK A01 T01780151  RH  088%=      5-min Rain = 0
KKN1 151205Z 18006KT 18/15 A2989 RMK A01 T01780151  RH  088%=      5-min Rain = 0
KKN1 151210Z 18007KT 18/15 A2989 RMK A01 T01770151  RH  089%=      5-min Rain = 0
KKN1 151215Z 18007KT 18/15 A2989 RMK A01 T01760151  RH  089%=      5-min Rain = 0
KKN1 151220Z 18006KT 18/15 A2989 RMK A01 T01770152  RH  089%=      5-min Rain = 0
KKN1 151225Z 18006KT 18/15 A2989 RMK A01 T01790152  RH  088%=      5-min Rain = 0
KKN1 151230Z 19006KT 18/15 A2989 RMK A01 T01790152  RH  088%=      5-min Rain = 0
KKN1 151235Z 19006KT 18/15 A2989 RMK A01 T01780151  RH  088%=      5-min Rain = 0
KKN1 151240Z 19006KT 18/15 A2989 RMK A01 T01770151  RH  088%=      5-min Rain = 0
KKN1 151245Z 18006KT 18/15 A2989 RMK A01 T01770151  RH  088%=      5-min Rain = 0
KKN1 151250Z 18005KT 18/15 A2989 RMK A01 T01770150  RH  088%=      5-min Rain = 0
KKN1 151255Z 19005KT 17/15 A299 RMK A01 T01740149  RH  089%=      5-min Rain = 0
KKN1 151300Z 19005KT 17/15 A2989 RMK A01 T01730149  RH  090%=      5-min Rain = 0
KKN1 151305Z 19006KT 17/15 A2989 RMK A01 T01700148  RH  091%=      5-min Rain = 0
KKN1 151310Z 20006KT 17/15 A299 RMK A01 T01710149  RH  091%=      5-min Rain = 0
KKN1 151315Z 20005KT 18/15 A299 RMK A01 T01750152  RH  090%=      5-min Rain = 0
KKN1 151320Z 22004KT 18/15 A299 RMK A01 T01800154  RH  088%=      5-min Rain = 0
KKN1 151325Z 23004KT 19/15 A299 RMK A01 T01860154  RH  086%=      5-min Rain = 0
KKN1 151330Z 24004KT 19/15 A299 RMK A01 T01910154  RH  083%=      5-min Rain = 0
KKN1 151335Z 23003KT 20/16 A299 RMK A01 T01960156  RH  081%=      5-min Rain = 0
KKN1 151340Z 23002KT 20/16 A299 RMK A01 T02010158  RH  080%=      5-min Rain = 0
KKN1 151345Z 24003KT 20/16 A299 RMK A01 T02040158  RH  078%=      5-min Rain = 0
KKN1 151350Z 24003KT 21/16 A2991 RMK A01 T02070159  RH  077%=      5-min Rain = 0
KKN1 151355Z 23003KT 21/16 A2991 RMK A01 T02110159  RH  076%=      5-min Rain = 0
KKN1 151400Z 23004KT 22/16 A299 RMK A01 T02170160  RH  074%=      5-min Rain = 0
KKN1 151405Z 22006KT 22/16 A299 RMK A01 T02230160  RH  071%=      5-min Rain = 0
KKN1 151410Z 23007KT 23/16 A299 RMK A01 T02270158  RH  068%=      5-min Rain = 0
KKN1 151415Z 23007KT 23/16 A299 RMK A01 T02250156  RH  068%=      5-min Rain = 0
KKN1 151420Z 22007KT 23/16 A299 RMK A01 T02250157  RH  069%=      5-min Rain = 0
KKN1 151425Z 21006KT 23/16 A299 RMK A01 T02290158  RH  067%=      5-min Rain = 0
KKN1 151430Z 22007KT 24/16 A299 RMK A01 T02350158  RH  065%=      5-min Rain = 0
KKN1 151435Z 22009KT 24/16 A299 RMK A01 T02370156  RH  063%=      5-min Rain = 0
KKN1 151440Z 23008KT 24/16 A2991 RMK A01 T02390155  RH  062%=      5-min Rain = 0
KKN1 151445Z 23009KT 24/15 A2991 RMK A01 T02400154  RH  061%=      5-min Rain = 0
KKN1 151450Z 24009KT 25/15 A2991 RMK A01 T02450154  RH  060%=      5-min Rain = 0
KKN1 151455Z 23009KT 25/16 A2991 RMK A01 T02500156  RH  058%=      5-min Rain = 0
KKN1 151500Z 23011KT 25/15 A299 RMK A01 T02530154  RH  057%=      5-min Rain = 0
KKN1 151505Z 24010G15KT 26/16 A2991 RMK A01 T02560155  RH  056%=      5-min Rain = 0
KKN1 151510Z 24012KT 26/16 A2991 RMK A01 T02590156  RH  055%=      5-min Rain = 0
KKN1 151515Z 24009KT 26/16 A2991 RMK A01 T02610157  RH  055%=      5-min Rain = 0
KKN1 151520Z 24011G17KT 26/16 A2991 RMK A01 T02620157  RH  055%=      5-min Rain = 0
KKN1 151525Z 24011KT 27/16 A299 RMK A01 T02650157  RH  054%=      5-min Rain = 0
KKN1 151530Z 24010KT 27/16 A299 RMK A01 T02710158  RH  053%=      5-min Rain = 0
KKN1 151535Z 24011KT 28/16 A2991 RMK A01 T02750157  RH  051%=      5-min Rain = 0
KKN1 151540Z 24009KT 28/16 A2991 RMK A01 T02790156  RH  049%=      5-min Rain = 0
KKN1 151545Z 25009KT 28/16 A2991 RMK A01 T02820157  RH  049%=      5-min Rain = 0
KKN1 151550Z 24010KT 29/16 A2991 RMK A01 T02850156  RH  048%=      5-min Rain = 0
KKN1 151555Z 25009KT 28/16 A2991 RMK A01 T02840155  RH  047%=      5-min Rain = 0
KKN1 151600Z 25007KT 29/16 A2991 RMK A01 T02890157  RH  047%=      5-min Rain = 0
KKN1 151605Z 27007KT 29/16 A2991 RMK A01 T02940156  RH  045%=      5-min Rain = 0
KKN1 151610Z 26007KT 29/15 A2991 RMK A01 T02920154  RH  045%=      5-min Rain = 0
KKN1 151615Z 24007KT 29/15 A299 RMK A01 T02920153  RH  045%=      5-min Rain = 0
KKN1 151620Z 25006KT 29/16 A2991 RMK A01 T02920155  RH  045%=      5-min Rain = 0
KKN1 151625Z 24008KT 30/16 A299 RMK A01 T02960155  RH  045%=      5-min Rain = 0
KKN1 151630Z 23007KT 30/15 A2991 RMK A01 T02950154  RH  044%=      5-min Rain = 0
KKN1 151635Z 25005KT 30/15 A2991 RMK A01 T02980153  RH  043%=      5-min Rain = 0
KKN1 151640Z 25008KT 30/15 A2991 RMK A01 T03030147  RH  040%=      5-min Rain = 0
KKN1 151645Z 27007G12KT 31/15 A2991 RMK A01 T03050146  RH  040%=      5-min Rain = 0
KKN1 151650Z 25007KT 30/14 A2991 RMK A01 T03040141  RH  039%=      5-min Rain = 0
KKN1 151655Z 28004G9KT 30/13 A2991 RMK A01 T03010131  RH  037%=      5-min Rain = 0
KKN1 151700Z 28006G11KT 31/12 A299 RMK A01 T03060124  RH  034%=      5-min Rain = 0
KKN1 151705Z 28006KT 31/13 A299 RMK A01 T03100126  RH  034%=      5-min Rain = 0
KKN1 151710Z 28006KT 31/13 A299 RMK A01 T03110125  RH  033%=      5-min Rain = 0
KKN1 151715Z 32011KT 32/10 A299 RMK A01 T03170100  RH  027%=      5-min Rain = 0
KKN1 151720Z 33009KT 31/10 A299 RMK A01 T03140095  RH  027%=      5-min Rain = 0
KKN1 151725Z 33009KT 32/10 A299 RMK A01 T03160098  RH  027%=      5-min Rain = 0
KKN1 151730Z 34010KT 32/10 A299 RMK A01 T03160095  RH  026%=      5-min Rain = 0
KKN1 151735Z 32010KT 32/10 A299 RMK A01 T03170097  RH  027%=      5-min Rain = 0
KKN1 151740Z 32009KT 31/10 A299 RMK A01 T03100104  RH  029%=      5-min Rain = 0
KKN1 151745Z 30010KT 32/11 A299 RMK A01 T03150112  RH  030%=      5-min Rain = 0
KKN1 151750Z 30009KT 31/12 A299 RMK A01 T03140115  RH  031%=      5-min Rain = 0
KKN1 151755Z 29008KT 31/11 A299 RMK A01 T03130111  RH  030%=      5-min Rain = 0
KKN1 151800Z 33008G13KT 31/11 A299 RMK A01 T03080105  RH  029%=      5-min Rain = 0
KKN1 151805Z 32008KT 32/11 A299 RMK A01 T03150108  RH  029%=      5-min Rain = 0
KKN1 151810Z 35010KT 32/11 A299 RMK A01 T03170109  RH  029%=      5-min Rain = 0
KKN1 151815Z 33008G13KT 32/11 A2989 RMK A01 T03180107  RH  028%=      5-min Rain = 0
KKN1 151820Z 33010KT 32/10 A2989 RMK A01 T03180102  RH  027%=      5-min Rain = 0
KKN1 151825Z 35010G15KT 32/09 A299 RMK A01 T03190086  RH  024%=      5-min Rain = 0
KKN1 151830Z 34011KT 32/08 A299 RMK A01 T03220075  RH  022%=      5-min Rain = 0
KKN1 151835Z 35014G23KT 32/07 A299 RMK A01 T03190067  RH  021%=      5-min Rain = 0
KKN1 151840Z 33015G21KT 31/06 A299 RMK A01 T03050061  RH  022%=      5-min Rain = 0
KKN1 151845Z 34014KT 31/06 A299 RMK A01 T03100064  RH  022%=      5-min Rain = 0
KKN1 151850Z 34014G19KT 32/07 A299 RMK A01 T03150070  RH  022%=      5-min Rain = 0
KKN1 151855Z 34015G20KT 32/07 A299 RMK A01 T03150072  RH  022%=      5-min Rain = 0
KKN1 151900Z 33017KT 31/07 A299 RMK A01 T03110065  RH  022%=      5-min Rain = 0
KKN1 151905Z 33017G22KT 31/05 A299 RMK A01 T03060054  RH  021%=      5-min Rain = 0
KKN1 151910Z 34014KT 30/05 A299 RMK A01 T02970047  RH  021%=      5-min Rain = 0
KKN1 151915Z 34015G21KT 29/05 A299 RMK A01 T02940045  RH  021%=      5-min Rain = 0
KKN1 151920Z 34016KT 29/04 A299 RMK A01 T02880039  RH  021%=      5-min Rain = 0
KKN1 151925Z 33015G20KT 29/04 A299 RMK A01 T02870039  RH  021%=      5-min Rain = 0
KKN1 151930Z 35015G20KT 29/04 A299 RMK A01 T02900042  RH  021%=      5-min Rain = 0
KKN1 151935Z 34015G22KT 30/05 A299 RMK A01 T02950045  RH  021%=      5-min Rain = 0
KKN1 151940Z 33014G20KT 29/05 A299 RMK A01 T02930046  RH  021%=      5-min Rain = 0
KKN1 151945Z 33016KT 29/04 A299 RMK A01 T02870043  RH  022%=      5-min Rain = 0
KKN1 151950Z 33016G22KT 29/05 A299 RMK A01 T02890045  RH  022%=      5-min Rain = 0
KKN1 151955Z 34014G20KT 29/05 A299 RMK A01 T02880047  RH  022%=      5-min Rain = 0
KKN1 152000Z 34015KT 29/05 A299 RMK A01 T02880046  RH  022%=      5-min Rain = 0
KKN1 152005Z 34015KT 29/05 A299 RMK A01 T02870048  RH  022%=      5-min Rain = 0
KKN1 152010Z 33014G20KT 28/05 A299 RMK A01 T02820046  RH  023%=      5-min Rain = 0
KKN1 152015Z 34013G19KT 29/05 A299 RMK A01 T02860048  RH  023%=      5-min Rain = 0
KKN1 152020Z 33014G19KT 29/05 A299 RMK A01 T02860052  RH  023%=      5-min Rain = 0
KKN1 152025Z 34014KT 29/06 A2991 RMK A01 T02870055  RH  023%=      5-min Rain = 0
KKN1 152030Z 34015G21KT 29/06 A2991 RMK A01 T02860056  RH  024%=      5-min Rain = 0
KKN1 152035Z 34015G20KT 29/06 A2991 RMK A01 T02860056  RH  024%=      5-min Rain = 0
KKN1 152040Z 34015G20KT 28/06 A2991 RMK A01 T02830061  RH  025%=      5-min Rain = 0
KKN1 152045Z 34014G20KT 28/06 A2991 RMK A01 T02770063  RH  026%=      5-min Rain = 0
KKN1 152050Z 34014G20KT 27/06 A2991 RMK A01 T02720063  RH  027%=      5-min Rain = 0
KKN1 152055Z 34014G19KT 27/07 A2992 RMK A01 T02710066  RH  028%=      5-min Rain = 0
KKN1 152100Z 34014G19KT 27/07 A2991 RMK A01 T02720071  RH  029%=      5-min Rain = 0
KKN1 152105Z 34014KT 27/08 A2992 RMK A01 T02720075  RH  030%=      5-min Rain = 0
KKN1 152110Z 34016G21KT 27/08 A2992 RMK A01 T02680076  RH  031%=      5-min Rain = 0
KKN1 152115Z 34016KT 27/08 A2992 RMK A01 T02650076  RH  031%=      5-min Rain = 0
KKN1 152120Z 35014G19KT 27/08 A2992 RMK A01 T02650078  RH  031%=      5-min Rain = 0
KKN1 152125Z 35015G20KT 26/08 A2992 RMK A01 T02630081  RH  032%=      5-min Rain = 0
KKN1 152130Z 34014G22KT 26/09 A2992 RMK A01 T02640086  RH  034%=      5-min Rain = 0
KKN1 152135Z 35016G22KT 26/09 A2992 RMK A01 T02630087  RH  034%=      5-min Rain = 0
KKN1 152140Z 35014G21KT 26/09 A2992 RMK A01 T02630085  RH  033%=      5-min Rain = 0
KKN1 152145Z 34015G20KT 26/09 A2992 RMK A01 T02620085  RH  034%=      5-min Rain = 0
KKN1 152150Z 33014G19KT 26/09 A2992 RMK A01 T02620087  RH  034%=      5-min Rain = 0
KKN1 152155Z 34014G20KT 27/09 A2992 RMK A01 T02680090  RH  034%=      5-min Rain = 0
KKN1 152200Z 34015G21KT 26/09 A2993 RMK A01 T02640087  RH  034%=      5-min Rain = 0
KKN1 152205Z 34016KT 26/09 A2993 RMK A01 T02580086  RH  035%=      5-min Rain = 0
KKN1 152210Z 34014G19KT 26/09 A2993 RMK A01 T02610088  RH  034%=      5-min Rain = 0
KKN1 152215Z 35015G21KT 27/09 A2993 RMK A01 T02670091  RH  034%=      5-min Rain = 0
KKN1 152220Z 35016G21KT 27/09 A2994 RMK A01 T02650091  RH  034%=      5-min Rain = 0
KKN1 152225Z 34013KT 27/09 A2994 RMK A01 T02660094  RH  035%=      5-min Rain = 0
KKN1 152230Z 35014G20KT 26/10 A2994 RMK A01 T02640096  RH  036%=      5-min Rain = 0
KKN1 152235Z 35014G19KT 26/10 A2994 RMK A01 T02600098  RH  037%=      5-min Rain = 0
KKN1 152240Z 35014G19KT 26/10 A2994 RMK A01 T02590099  RH  038%=      5-min Rain = 0
KKN1 152245Z 36019G24KT 26/10 A2994 RMK A01 T02550103  RH  040%=      5-min Rain = 0
KKN1 152250Z 00018G23KT 25/11 A2995 RMK A01 T02460110  RH  044%=      5-min Rain = 0
KKN1 152255Z 36018G24KT 24/11 A2995 RMK A01 T02430110  RH  045%=      5-min Rain = 0
KKN1 152300Z 35018G24KT 24/11 A2995 RMK A01 T02420109  RH  044%=      5-min Rain = 0
KKN1 152305Z 35018G23KT 24/11 A2995 RMK A01 T02420108  RH  044%=      5-min Rain = 0
KKN1 152310Z 35017G22KT 24/11 A2995 RMK A01 T02400111  RH  046%=      5-min Rain = 0
KKN1 152315Z 36015KT 24/11 A2996 RMK A01 T02390113  RH  047%=      5-min Rain = 0
KKN1 152320Z 00014G20KT 24/11 A2996 RMK A01 T02380111  RH  046%=      5-min Rain = 0
KKN1 152325Z 00017KT 24/11 A2996 RMK A01 T02360110  RH  047%=      5-min Rain = 0
KKN1 152330Z 36016G22KT 23/11 A2996 RMK A01 T02340114  RH  049%=      5-min Rain = 0
KKN1 152335Z 35015G21KT 23/12 A2997 RMK A01 T02320116  RH  050%=      5-min Rain = 0
KKN1 152340Z 35015G20KT 23/12 A2997 RMK A01 T02300118  RH  051%=      5-min Rain = 0
KKN1 152345Z 36015G21KT 23/12 A2997 RMK A01 T02290118  RH  051%=      5-min Rain = 0
KKN1 152350Z 00016G21KT 23/12 A2997 RMK A01 T02270116  RH  051%=      5-min Rain = 0
KKN1 152355Z 00015KT 23/12 A2998 RMK A01 T02270118  RH  052%=      5-min Rain = 0
KKN1 160000Z 00011KT 23/12 A2998 RMK A01 T02250119  RH  053%=      5-min Rain = 0
KKN1 160005Z 00011G16KT 22/12 A2998 RMK A01 T02240119  RH  053%=      5-min Rain = 0
KKN1 160010Z 01008KT 22/12 A2998 RMK A01 T02220119  RH  054%=      5-min Rain = 0
KKN1 160015Z 01011G16KT 22/12 A2998 RMK A01 T02210118  RH  054%=      5-min Rain = 0
KKN1 160020Z 00011G16KT 22/12 A2999 RMK A01 T02220116  RH  053%=      5-min Rain = 0
KKN1 160025Z 01011KT 22/11 A2999 RMK A01 T02210112  RH  052%=      5-min Rain = 0
KKN1 160030Z 01013G18KT 22/10 A2999 RMK A01 T02210102  RH  048%=      5-min Rain = 0
KKN1 160035Z 01014KT 22/09 A30 RMK A01 T02220088  RH  043%=      5-min Rain = 0
KKN1 160040Z 01012G17KT 22/08 A30 RMK A01 T02210083  RH  042%=      5-min Rain = 0
KKN1 160045Z 00013KT 22/08 A30 RMK A01 T02200079  RH  042%=      5-min Rain = 0
KKN1 160050Z 00011KT 22/08 A30 RMK A01 T02180078  RH  042%=      5-min Rain = 0
KKN1 160055Z 00011KT 22/08 A3001 RMK A01 T02170075  RH  041%=      5-min Rain = 0
KKN1 160100Z 00012G18KT 22/07 A3001 RMK A01 T02150072  RH  040%=      5-min Rain = 0
KKN1 160105Z 00014G21KT 22/06 A3002 RMK A01 T02160064  RH  038%=      5-min Rain = 0
KKN1 160110Z 01015G20KT 22/06 A3002 RMK A01 T02170061  RH  037%=      5-min Rain = 0
KKN1 160115Z 01015KT 22/06 A3002 RMK A01 T02160060  RH  037%=      5-min Rain = 0
KKN1 160120Z 01015G21KT 22/06 A3003 RMK A01 T02150060  RH  038%=      5-min Rain = 0
KKN1 160125Z 01013G18KT 21/06 A3003 RMK A01 T02130061  RH  038%=      5-min Rain = 0
KKN1 160130Z 01013G20KT 21/06 A3004 RMK A01 T02120061  RH  038%=      5-min Rain = 0
KKN1 160135Z 01012G18KT 21/06 A3004 RMK A01 T02100062  RH  039%=      5-min Rain = 0
KKN1 160140Z 01014KT 21/06 A3005 RMK A01 T02080063  RH  040%=      5-min Rain = 0
KKN1 160145Z 01013G18KT 21/06 A3005 RMK A01 T02080063  RH  040%=      5-min Rain = 0
KKN1 160150Z 01013G18KT 21/06 A3005 RMK A01 T02050064  RH  041%=      5-min Rain = 0
KKN1 160155Z 01010G15KT 20/07 A3006 RMK A01 T02040065  RH  041%=      5-min Rain = 0
KKN1 160200Z 01012G17KT 20/07 A3006 RMK A01 T02020066  RH  042%=      5-min Rain = 0
KKN1 160205Z 01012G17KT 20/07 A3006 RMK A01 T02010066  RH  042%=      5-min Rain = 0
KKN1 160210Z 02011G16KT 20/07 A3007 RMK A01 T02000066  RH  043%=      5-min Rain = 0
KKN1 160215Z 01012KT 20/07 A3007 RMK A01 T01980065  RH  043%=      5-min Rain = 0
KKN1 160220Z 02013G18KT 20/06 A3007 RMK A01 T01980062  RH  042%=      5-min Rain = 0
KKN1 160225Z 02013G20KT 20/06 A3008 RMK A01 T01970057  RH  041%=      5-min Rain = 0
KKN1 160230Z 02014G21KT 20/05 A3008 RMK A01 T01980054  RH  040%=      5-min Rain = 0
KKN1 160235Z 01014G22KT 20/05 A3008 RMK A01 T01950051  RH  039%=      5-min Rain = 0
KKN1 160240Z 01013G19KT 19/05 A3009 RMK A01 T01940048  RH  039%=      5-min Rain = 0
KKN1 160245Z 02012G17KT 19/05 A3009 RMK A01 T01920046  RH  039%=      5-min Rain = 0
KKN1 160250Z 01012G17KT 19/05 A301 RMK A01 T01920045  RH  039%=      5-min Rain = 0
KKN1 160255Z 02013G18KT 19/04 A301 RMK A01 T01910042  RH  038%=      5-min Rain = 0
KKN1 160300Z 02016G23KT 19/04 A301 RMK A01 T01910039  RH  037%=      5-min Rain = 0
KKN1 160305Z 02014G19KT 19/04 A301 RMK A01 T01910037  RH  037%=      5-min Rain = 0
KKN1 160310Z 02014KT 19/04 A3011 RMK A01 T01900036  RH  037%=      5-min Rain = 0
KKN1 160315Z 02013G21KT 19/04 A3011 RMK A01 T01880036  RH  037%=      5-min Rain = 0
KKN1 160320Z 02014KT 19/04 A3011 RMK A01 T01870036  RH  037%=      5-min Rain = 0
KKN1 160325Z 02013G19KT 19/04 A3012 RMK A01 T01870035  RH  037%=      5-min Rain = 0
KKN1 160330Z 02013G18KT 19/04 A3012 RMK A01 T01860035  RH  037%=      5-min Rain = 0
KKN1 160335Z 02014G19KT 19/04 A3013 RMK A01 T01850035  RH  037%=      5-min Rain = 0
KKN1 160340Z 02013G18KT 19/03 A3013 RMK A01 T01850034  RH  037%=      5-min Rain = 0
KKN1 160345Z 01010G16KT 18/03 A3014 RMK A01 T01830034  RH  038%=      5-min Rain = 0
KKN1 160350Z 02012G17KT 18/03 A3015 RMK A01 T01810033  RH  038%=      5-min Rain = 0
KKN1 160355Z 02013G21KT 18/03 A3015 RMK A01 T01820032  RH  038%=      5-min Rain = 0
KKN1 160400Z 02012G18KT 18/03 A3015 RMK A01 T01800032  RH  038%=      5-min Rain = 0
KKN1 160405Z 02012KT 18/03 A3015 RMK A01 T01790032  RH  038%=      5-min Rain = 0
KKN1 160410Z 02010G16KT 18/03 A3016 RMK A01 T01770032  RH  039%=      5-min Rain = 0
KKN1 160415Z 02011G17KT 18/03 A3016 RMK A01 T01750032  RH  039%=      5-min Rain = 0
KKN1 160420Z 02013KT 18/03 A3016 RMK A01 T01760031  RH  039%=      5-min Rain = 0
KKN1 160425Z 02012G17KT 17/03 A3016 RMK A01 T01740031  RH  039%=      5-min Rain = 0
KKN1 160430Z 02013KT 17/03 A3017 RMK A01 T01730031  RH  039%=      5-min Rain = 0
KKN1 160435Z 02013G19KT 17/03 A3017 RMK A01 T01720030  RH  039%=      5-min Rain = 0
KKN1 160440Z 02012G18KT 17/03 A3017 RMK A01 T01710030  RH  040%=      5-min Rain = 0
KKN1 160445Z 02013G19KT 17/03 A3017 RMK A01 T01700029  RH  040%=      5-min Rain = 0
KKN1 160450Z 02012G17KT 17/03 A3017 RMK A01 T01690029  RH  040%=      5-min Rain = 0
KKN1 160455Z 02011KT 17/03 A3017 RMK A01 T01670029  RH  040%=      5-min Rain = 0

Page generated in 0.0109 seconds.